Time;durP1;ratioP1;P1;durP2;ratioP2;P2;SDS_P1;SDS_P2;PMS_P1;PMS_P2;Temp;Humidity;BMP_temperature;BMP_pressure;BME280_temperature;BME280_humidity;BME280_pressure;Samples;Min_cycle;Max_cycle;Signal;HPM_P1;HPM_P2
2023/01/09 00:00:58;;;;;;;3.42;3.05;;;9.20;99.90;;;;;;5030759;28;20370;-54
2023/01/09 00:03:23;;;;;;;3.53;3.22;;;9.20;99.90;;;;;;5009142;28;20018;-54
2023/01/09 00:05:50;;;;;;;3.05;2.83;;;9.20;99.90;;;;;;5030148;28;20494;-48
2023/01/09 00:08:17;;;;;;;3.75;3.05;;;9.20;99.90;;;;;;5031683;28;20032;-53
2023/01/09 00:10:43;;;;;;;3.72;3.42;;;9.10;99.90;;;;;;5031215;28;20024;-52
2023/01/09 00:13:11;;;;;;;6.75;3.38;;;9.10;99.90;;;;;;5030164;28;20037;-54
2023/01/09 00:15:37;;;;;;;3.35;3.13;;;9.10;99.90;;;;;;5033276;28;20493;-54
2023/01/09 00:18:03;;;;;;;4.68;3.70;;;9.20;99.90;;;;;;5035094;28;20076;-56
2023/01/09 00:20:28;;;;;;;8.00;4.30;;;9.10;99.90;;;;;;5034675;28;20022;-56
2023/01/09 00:22:54;;;;;;;4.38;4.03;;;9.10;99.90;;;;;;5033327;28;20025;-52
2023/01/09 00:25:21;;;;;;;8.55;4.25;;;9.10;99.90;;;;;;5035078;28;20040;-53
2023/01/09 00:27:47;;;;;;;4.60;4.20;;;9.10;99.90;;;;;;5034673;28;20057;-56
2023/01/09 00:30:13;;;;;;;5.57;4.60;;;9.10;99.90;;;;;;5034571;28;20032;-57
2023/01/09 00:32:39;;;;;;;5.75;4.53;;;9.00;99.90;;;;;;5033914;28;20061;-53
2023/01/09 00:35:07;;;;;;;12.82;5.43;;;9.10;99.90;;;;;;5034578;28;20041;-53
2023/01/09 00:37:33;;;;;;;7.25;4.20;;;9.10;99.90;;;;;;5034401;28;20029;-51
2023/01/09 00:39:58;;;;;;;6.55;4.82;;;9.10;99.90;;;;;;5034534;28;20393;-52
2023/01/09 00:42:26;;;;;;;5.63;4.28;;;9.00;99.90;;;;;;5033604;28;20030;-53
2023/01/09 00:44:57;;;;;;;6.00;4.32;;;9.10;99.90;;;;;;5034820;28;20075;-52
2023/01/09 00:47:31;;;;;;;4.30;3.92;;;9.10;99.90;;;;;;5034357;28;20056;-53
2023/01/09 00:50:01;;;;;;;4.93;4.43;;;9.00;99.90;;;;;;5034243;28;20021;-54
2023/01/09 00:52:29;;;;;;;6.13;4.57;;;9.00;99.90;;;;;;5033657;28;20025;-54
2023/01/09 00:54:54;;;;;;;4.65;4.20;;;9.00;99.90;;;;;;5034405;28;20033;-50
2023/01/09 00:57:20;;;;;;;5.30;4.80;;;9.10;99.90;;;;;;5033992;28;20030;-50
2023/01/09 00:59:45;;;;;;;4.78;4.38;;;9.00;99.90;;;;;;5034192;28;20112;-50
2023/01/09 01:02:11;;;;;;;5.28;4.78;;;9.00;99.90;;;;;;5033283;28;20036;-52
2023/01/09 01:07:37;;;;;;;9.70;4.55;;;9.10;99.90;;;;;;4996451;28;20067;-54
2023/01/09 01:10:09;;;;;;;5.65;5.10;;;9.10;99.90;;;;;;5033846;28;20029;-51
2023/01/09 01:12:35;;;;;;;5.35;4.55;;;9.00;99.90;;;;;;5015252;28;20029;-53
2023/01/09 01:15:00;;;;;;;4.97;4.35;;;9.00;99.90;;;;;;5034374;28;20029;-54
2023/01/09 01:17:26;;;;;;;5.03;4.60;;;9.00;99.90;;;;;;5102177;22;20132;-45
2023/01/09 01:19:51;;;;;;;6.43;4.65;;;9.00;99.90;;;;;;5096043;28;20031;-42
2023/01/09 01:22:17;;;;;;;5.40;4.80;;;9.00;99.90;;;;;;5112254;28;20478;-42
2023/01/09 01:24:42;;;;;;;5.05;4.55;;;9.00;99.90;;;;;;5114158;28;20019;-44
2023/01/09 01:27:08;;;;;;;4.38;3.97;;;9.00;99.90;;;;;;5113088;28;20031;-42
2023/01/09 01:29:33;;;;;;;3.72;3.40;;;9.00;99.90;;;;;;5114188;28;20034;-43
2023/01/09 01:31:59;;;;;;;5.07;3.40;;;9.00;99.90;;;;;;5095001;28;20030;-43
2023/01/09 01:34:24;;;;;;;3.33;3.03;;;9.00;99.90;;;;;;5114048;28;20024;-44
2023/01/09 01:36:50;;;;;;;3.90;2.95;;;9.10;99.90;;;;;;5113906;28;20080;-48
2023/01/09 01:39:16;;;;;;;3.95;2.80;;;9.10;99.90;;;;;;5113825;28;20038;-47
2023/01/09 01:41:41;;;;;;;3.35;2.80;;;9.10;99.90;;;;;;5113704;28;20098;-45
2023/01/09 01:44:46;;;;;;;2.67;2.05;;;9.10;99.90;;;;;;5113337;28;20024;-42
2023/01/09 01:47:12;;;;;;;2.70;2.15;;;9.10;99.90;;;;;;5113538;28;20069;-45
2023/01/09 01:49:37;;;;;;;1.80;1.70;;;9.10;99.90;;;;;;5113738;28;20054;-44
2023/01/09 01:52:03;;;;;;;3.72;2.20;;;9.20;99.90;;;;;;5112729;28;20031;-46
2023/01/09 01:54:31;;;;;;;3.22;1.48;;;9.10;99.90;;;;;;5113695;28;20034;-45
2023/01/09 01:57:02;;;;;;;2.05;1.88;;;9.10;99.90;;;;;;5113394;28;20479;-43
2023/01/09 01:59:48;;;;;;;2.15;1.70;;;9.20;99.90;;;;;;5113431;28;20031;-48
2023/01/09 02:02:17;;;;;;;4.45;1.88;;;9.20;99.90;;;;;;5112671;28;20052;-47
2023/01/09 02:04:44;;;;;;;1.60;1.42;;;9.10;99.90;;;;;;5113495;28;20113;-44
2023/01/09 02:07:10;;;;;;;1.80;1.70;;;9.10;99.90;;;;;;5113368;28;20019;-48
2023/01/09 02:09:38;;;;;;;1.60;1.50;;;9.10;99.90;;;;;;5113383;28;20422;-44
2023/01/09 02:12:17;;;;;;;1.77;1.40;;;9.10;99.90;;;;;;5112463;28;20037;-48
2023/01/09 02:14:45;;;;;;;2.47;1.20;;;9.10;99.90;;;;;;5113253;28;20072;-47
2023/01/09 02:17:32;;;;;;;1.40;1.30;;;9.10;99.90;;;;;;5112902;28;20104;-45
2023/01/09 02:20:19;;;;;;;1.45;1.35;;;9.10;99.90;;;;;;5113716;28;20043;-45
2023/01/09 02:23:08;;;;;;;1.20;1.20;;;9.10;99.90;;;;;;5111962;28;20019;-42
2023/01/09 02:26:03;;;;;;;1.13;1.13;;;9.10;99.90;;;;;;5100138;28;20539;-41
2023/01/09 02:29:07;;;;;;;1.13;1.03;;;9.10;99.90;;;;;;5114565;28;20567;-43
2023/01/09 02:31:47;;;;;;;1.48;1.10;;;9.00;99.90;;;;;;5095698;28;20294;-49
2023/01/09 02:34:46;;;;;;;1.02;1.02;;;8.90;99.90;;;;;;5112941;28;20410;-47
2023/01/09 02:37:45;;;;;;;0.90;0.90;;;8.90;99.90;;;;;;5113243;28;20023;-46
2023/01/09 02:40:23;;;;;;;1.00;1.00;;;8.90;99.90;;;;;;5094045;28;20506;-47
2023/01/09 02:42:50;;;;;;;1.48;0.88;;;8.80;99.90;;;;;;5095354;28;20099;-44
2023/01/09 02:45:16;;;;;;;0.98;0.88;;;8.70;99.90;;;;;;5113370;28;20023;-44
2023/01/09 02:47:44;;;;;;;0.90;0.90;;;8.70;99.90;;;;;;5113106;28;20020;-45
2023/01/09 02:50:14;;;;;;;0.60;0.60;;;8.60;99.90;;;;;;5094332;28;20039;-47
2023/01/09 02:52:55;;;;;;;0.80;0.80;;;8.60;99.90;;;;;;5112328;28;20395;-42
2023/01/09 02:55:39;;;;;;;0.80;0.60;;;8.60;99.90;;;;;;5113038;28;20054;-45
2023/01/09 02:58:33;;;;;;;0.60;0.60;;;8.50;99.90;;;;;;5112335;28;20024;-43
2023/01/09 03:01:04;;;;;;;0.50;0.50;;;8.40;99.90;;;;;;5112427;28;20077;-47
2023/01/09 03:04:03;;;;;;;0.63;0.40;;;8.50;99.90;;;;;;5111590;28;20038;-49
2023/01/09 03:06:44;;;;;;;0.60;0.60;;;8.50;99.90;;;;;;5112274;28;20016;-44
2023/01/09 03:09:21;;;;;;;0.60;0.60;;;8.50;99.90;;;;;;5112283;28;20027;-43
2023/01/09 03:11:51;;;;;;;0.40;0.40;;;8.60;99.90;;;;;;5112208;28;20088;-40
2023/01/09 03:14:22;;;;;;;0.82;0.50;;;8.60;99.90;;;;;;5112054;28;20019;-48
2023/01/09 03:16:51;;;;;;;0.60;0.60;;;8.60;99.90;;;;;;5112328;28;20028;-48
2023/01/09 03:19:20;;;;;;;0.57;0.57;;;8.60;99.90;;;;;;5112057;28;20059;-41
2023/01/09 03:21:46;;;;;;;0.63;0.40;;;8.70;99.90;;;;;;5110046;28;20023;-45
2023/01/09 03:24:12;;;;;;;1.05;0.70;;;8.70;99.90;;;;;;5111610;28;20505;-45
2023/01/09 03:26:38;;;;;;;0.70;0.65;;;8.70;99.90;;;;;;5111887;28;20030;-47
2023/01/09 03:29:04;;;;;;;0.60;0.60;;;8.70;99.90;;;;;;5111921;28;20024;-45
2023/01/09 03:31:29;;;;;;;1.70;0.60;;;8.70;99.90;;;;;;5112091;28;20518;-47
2023/01/09 03:33:55;;;;;;;0.77;0.77;;;8.70;99.90;;;;;;5110953;28;20032;-41
2023/01/09 03:36:21;;;;;;;0.60;0.60;;;8.60;99.90;;;;;;5111980;28;20024;-44
2023/01/09 03:38:47;;;;;;;0.77;0.60;;;8.70;99.90;;;;;;5111761;28;20031;-47
2023/01/09 03:41:12;;;;;;;0.90;0.68;;;8.70;99.90;;;;;;5111840;28;20046;-43
2023/01/09 03:43:38;;;;;;;0.70;0.70;;;8.70;99.90;;;;;;5110936;28;20076;-46
2023/01/09 03:46:04;;;;;;;3.20;0.65;;;8.70;99.90;;;;;;5110453;28;20076;-46
2023/01/09 03:48:30;;;;;;;2.05;0.88;;;8.70;99.90;;;;;;5111566;28;20016;-46
2023/01/09 03:50:55;;;;;;;1.63;0.50;;;8.70;99.90;;;;;;5114766;28;20035;-45
2023/01/09 03:53:23;;;;;;;0.47;0.47;;;8.60;99.90;;;;;;5115155;28;20028;-45
2023/01/09 03:55:51;;;;;;;1.13;0.50;;;8.60;99.90;;;;;;5116055;28;20096;-48
2023/01/09 03:58:19;;;;;;;1.15;0.60;;;8.60;99.90;;;;;;5115924;28;20028;-40
2023/01/09 04:00:47;;;;;;;0.75;0.57;;;8.60;99.90;;;;;;5115667;28;20028;-44
2023/01/09 04:03:13;;;;;;;0.50;0.50;;;8.60;99.90;;;;;;5115284;28;20020;-42
2023/01/09 04:05:39;;;;;;;2.83;0.30;;;8.60;99.90;;;;;;5115708;28;20080;-46
2023/01/09 04:08:05;;;;;;;0.38;0.38;;;8.60;99.90;;;;;;5115867;28;20450;-44
2023/01/09 04:10:30;;;;;;;0.73;0.73;;;8.50;99.90;;;;;;5115835;28;20034;-43
2023/01/09 04:12:56;;;;;;;1.02;0.30;;;8.60;99.90;;;;;;5114978;28;20028;-43
2023/01/09 04:15:23;;;;;;;0.40;0.40;;;8.60;99.90;;;;;;5115367;28;20398;-44
2023/01/09 04:17:49;;;;;;;0.50;0.28;;;8.60;99.90;;;;;;5115314;28;20038;-43
2023/01/09 04:20:14;;;;;;;1.75;0.55;;;8.60;99.90;;;;;;5115369;28;20051;-46
2023/01/09 04:22:40;;;;;;;0.30;0.30;;;8.60;99.90;;;;;;5114613;28;20066;-46
2023/01/09 04:25:06;;;;;;;0.20;0.20;;;8.60;99.90;;;;;;5115301;28;20020;-43
2023/01/09 04:27:31;;;;;;;0.55;0.52;;;8.60;99.90;;;;;;5115189;28;20028;-43
2023/01/09 04:29:57;;;;;;;0.57;0.57;;;8.60;99.90;;;;;;5115351;28;20034;-44
2023/01/09 04:32:22;;;;;;;0.55;0.40;;;8.50;99.90;;;;;;5114616;28;20020;-43
2023/01/09 04:34:48;;;;;;;0.22;0.22;;;8.50;99.90;;;;;;5115296;28;20033;-42
2023/01/09 04:37:13;;;;;;;1.08;0.40;;;8.50;99.90;;;;;;5115045;28;20024;-42
2023/01/09 04:39:42;;;;;;;0.50;0.50;;;8.50;99.90;;;;;;5115295;28;20024;-46
2023/01/09 04:42:08;;;;;;;1.45;0.57;;;8.50;99.90;;;;;;5114643;28;20052;-42
2023/01/09 04:44:33;;;;;;;0.85;0.35;;;8.40;99.90;;;;;;5096568;28;20016;-42
2023/01/09 04:46:59;;;;;;;0.75;0.60;;;8.40;99.90;;;;;;5096799;28;20035;-42
2023/01/09 04:49:24;;;;;;;0.43;0.30;;;8.40;99.90;;;;;;5115085;28;20031;-46
2023/01/09 04:51:50;;;;;;;0.30;0.30;;;8.40;99.90;;;;;;5114686;28;20034;-47
2023/01/09 04:54:16;;;;;;;1.80;0.40;;;8.40;99.90;;;;;;5114434;28;20102;-44
2023/01/09 04:56:42;;;;;;;3.30;0.50;;;8.30;99.90;;;;;;5114482;28;20043;-46
2023/01/09 04:59:08;;;;;;;1.33;0.40;;;8.30;99.90;;;;;;5114649;28;20119;-48
2023/01/09 05:01:34;;;;;;;0.40;0.40;;;8.30;99.90;;;;;;5113646;28;20102;-48
2023/01/09 05:04:00;;;;;;;0.40;0.40;;;8.30;99.90;;;;;;5113820;28;20512;-47
2023/01/09 05:06:25;;;;;;;0.77;0.77;;;8.30;99.90;;;;;;5114434;28;20019;-44
2023/01/09 05:08:51;;;;;;;1.05;0.38;;;8.30;99.90;;;;;;5114645;28;20022;-46
2023/01/09 05:11:17;;;;;;;0.50;0.50;;;8.30;99.90;;;;;;5114729;28;20051;-48
2023/01/09 05:13:42;;;;;;;0.38;0.38;;;8.30;99.90;;;;;;5113711;28;20019;-46
2023/01/09 05:16:08;;;;;;;5.57;0.50;;;8.30;99.90;;;;;;5114594;28;20479;-45
2023/01/09 05:18:33;;;;;;;0.30;0.30;;;8.30;99.90;;;;;;5096247;28;20027;-45
2023/01/09 05:20:59;;;;;;;0.57;0.45;;;8.30;99.90;;;;;;5114115;28;20115;-46
2023/01/09 05:23:24;;;;;;;0.45;0.43;;;8.30;99.90;;;;;;5113588;28;20028;-45
2023/01/09 05:25:50;;;;;;;0.40;0.40;;;8.30;99.90;;;;;;5114489;28;20055;-42
2023/01/09 05:28:15;;;;;;;3.13;1.02;;;8.20;99.90;;;;;;5114115;28;20056;-43
2023/01/09 05:30:41;;;;;;;0.73;0.73;;;8.20;99.90;;;;;;5114117;28;20457;-45
2023/01/09 05:33:06;;;;;;;1.08;0.60;;;8.20;99.90;;;;;;5113443;28;20031;-43
2023/01/09 05:35:32;;;;;;;0.60;0.40;;;8.20;99.90;;;;;;5114048;28;20059;-44
2023/01/09 05:37:57;;;;;;;5.60;0.73;;;8.10;99.90;;;;;;5113999;28;20051;-46
2023/01/09 05:40:23;;;;;;;0.82;0.57;;;8.10;99.90;;;;;;5114518;28;20024;-47
2023/01/09 05:42:48;;;;;;;3.58;0.93;;;8.10;99.90;;;;;;5113055;28;20436;-43
2023/01/09 05:45:14;;;;;;;1.90;0.60;;;8.10;99.90;;;;;;5113812;28;20530;-47
2023/01/09 05:47:40;;;;;;;1.67;0.63;;;8.10;99.90;;;;;;5113599;28;20430;-47
2023/01/09 05:50:06;;;;;;;0.68;0.50;;;8.10;99.90;;;;;;5095668;28;20422;-45
2023/01/09 05:52:31;;;;;;;1.10;0.82;;;8.10;99.90;;;;;;5113184;28;20024;-43
2023/01/09 05:54:57;;;;;;;0.88;0.60;;;8.10;99.90;;;;;;5113759;28;20487;-44
2023/01/09 05:57:22;;;;;;;2.47;0.60;;;8.00;99.90;;;;;;5113376;28;20436;-44
2023/01/09 05:59:48;;;;;;;3.13;0.60;;;8.00;99.90;;;;;;5114155;28;20067;-40
2023/01/09 06:02:13;;;;;;;1.60;0.90;;;7.90;99.90;;;;;;5112909;28;20024;-43
2023/01/09 06:04:39;;;;;;;2.00;0.68;;;7.90;99.90;;;;;;5113511;28;20609;-43
2023/01/09 06:07:04;;;;;;;2.53;0.68;;;7.80;99.90;;;;;;5113254;28;20023;-42
2023/01/09 06:09:30;;;;;;;1.55;0.60;;;7.80;99.90;;;;;;5113558;28;20611;-43
2023/01/09 06:11:56;;;;;;;2.63;0.80;;;7.80;99.90;;;;;;5112764;28;20028;-39
2023/01/09 06:14:22;;;;;;;1.17;0.60;;;7.70;99.90;;;;;;5113305;28;20019;-48
2023/01/09 06:16:48;;;;;;;0.43;0.43;;;7.80;99.90;;;;;;5113256;28;20042;-43
2023/01/09 06:19:14;;;;;;;2.95;0.60;;;7.80;99.90;;;;;;5095043;28;20114;-44
2023/01/09 06:21:40;;;;;;;2.13;0.75;;;7.90;99.90;;;;;;5094720;28;20027;-49
2023/01/09 06:24:06;;;;;;;6.60;1.10;;;7.90;99.90;;;;;;5112400;28;20403;-47
2023/01/09 06:26:31;;;;;;;2.30;0.80;;;7.90;99.90;;;;;;5112884;28;20473;-42
2023/01/09 06:28:57;;;;;;;1.35;0.63;;;7.90;99.90;;;;;;5112986;28;20028;-46
2023/01/09 06:31:24;;;;;;;0.75;0.60;;;7.90;99.90;;;;;;5113122;28;20031;-44
2023/01/09 06:33:49;;;;;;;1.65;0.80;;;7.80;99.90;;;;;;5112422;28;20379;-43
2023/01/09 06:36:15;;;;;;;1.25;0.60;;;7.80;99.90;;;;;;5112735;28;20034;-49
2023/01/09 06:38:40;;;;;;;1.02;0.95;;;7.70;99.90;;;;;;5112586;28;20030;-40
2023/01/09 06:41:06;;;;;;;1.85;0.80;;;7.70;99.90;;;;;;5112696;28;20029;-44
2023/01/09 06:43:32;;;;;;;4.70;1.00;;;7.60;99.90;;;;;;5112183;28;20023;-42
2023/01/09 06:45:57;;;;;;;3.22;1.30;;;7.60;99.90;;;;;;5094379;28;20023;-47
2023/01/09 06:48:25;;;;;;;1.92;1.30;;;7.60;99.90;;;;;;5113016;28;20020;-44
2023/01/09 06:50:52;;;;;;;4.22;1.00;;;7.70;99.90;;;;;;5112547;28;20024;-47
2023/01/09 06:53:18;;;;;;;6.03;1.75;;;7.70;99.90;;;;;;5093543;28;20050;-46
2023/01/09 06:55:44;;;;;;;4.15;1.38;;;7.70;99.90;;;;;;5112786;28;20050;-46
2023/01/09 06:58:10;;;;;;;2.50;0.93;;;7.70;99.90;;;;;;5112396;28;20035;-44
2023/01/09 07:00:36;;;;;;;3.92;0.98;;;7.70;99.90;;;;;;5112572;28;20027;-45
2023/01/09 07:03:02;;;;;;;2.50;0.82;;;7.70;99.90;;;;;;5111898;28;20024;-46
2023/01/09 07:05:28;;;;;;;3.55;1.65;;;7.70;99.90;;;;;;5112894;28;20107;-46
2023/01/09 07:07:53;;;;;;;2.75;0.98;;;7.70;99.90;;;;;;5112292;28;20047;-41
2023/01/09 07:10:19;;;;;;;6.00;1.42;;;7.70;99.90;;;;;;5112220;28;20486;-45
2023/01/09 07:12:45;;;;;;;4.15;1.05;;;7.80;99.90;;;;;;5111943;28;20027;-50
2023/01/09 07:15:11;;;;;;;1.20;0.80;;;7.80;99.90;;;;;;5112402;28;20027;-45
2023/01/09 07:17:37;;;;;;;4.40;1.55;;;7.80;99.90;;;;;;5115644;22;20044;-50
2023/01/09 07:20:03;;;;;;;6.93;2.15;;;7.80;99.90;;;;;;5071579;28;20024;-57
2023/01/09 07:22:29;;;;;;;4.03;1.00;;;7.80;99.90;;;;;;5070553;28;20488;-54
2023/01/09 07:24:54;;;;;;;3.78;0.70;;;7.80;99.90;;;;;;5070989;28;20048;-55
2023/01/09 07:27:21;;;;;;;2.47;0.82;;;7.80;99.90;;;;;;5071046;28;20025;-52
2023/01/09 07:29:46;;;;;;;4.60;1.08;;;7.80;99.90;;;;;;5071170;28;20028;-56
2023/01/09 07:32:12;;;;;;;1.75;0.80;;;7.70;99.90;;;;;;5070369;28;20395;-52
2023/01/09 07:34:37;;;;;;;4.45;1.88;;;7.70;99.90;;;;;;5071256;28;20048;-54
2023/01/09 07:37:03;;;;;;;1.13;0.95;;;7.70;99.90;;;;;;5071245;28;20067;-52
2023/01/09 07:39:28;;;;;;;4.45;1.33;;;7.70;99.90;;;;;;5053251;28;20064;-51
2023/01/09 07:41:54;;;;;;;9.15;1.13;;;7.80;99.90;;;;;;5052458;28;20021;-57
2023/01/09 07:44:19;;;;;;;4.22;0.95;;;7.80;99.90;;;;;;5071136;28;20500;-50
2023/01/09 07:46:45;;;;;;;0.70;0.70;;;7.80;99.90;;;;;;5070916;28;20017;-50
2023/01/09 07:49:10;;;;;;;2.33;0.88;;;7.80;99.90;;;;;;5052895;28;20029;-52
2023/01/09 07:51:41;;;;;;;5.22;1.27;;;7.90;99.90;;;;;;5071207;28;20020;-49
2023/01/09 07:54:07;;;;;;;5.28;1.60;;;7.90;99.90;;;;;;5070425;28;20031;-52
2023/01/09 07:56:32;;;;;;;3.90;0.93;;;8.00;99.90;;;;;;5070852;28;20028;-49
2023/01/09 07:58:58;;;;;;;5.00;2.83;;;8.00;99.90;;;;;;5070945;28;20480;-51
2023/01/09 08:01:23;;;;;;;5.70;1.27;;;8.10;99.90;;;;;;5053238;28;20025;-53
2023/01/09 08:03:49;;;;;;;2.25;1.10;;;8.10;99.90;;;;;;5070210;28;20021;-53
2023/01/09 08:06:14;;;;;;;3.85;1.17;;;8.20;99.90;;;;;;5053272;28;20542;-50
2023/01/09 08:08:40;;;;;;;7.32;1.65;;;8.20;99.90;;;;;;5053071;28;20060;-49
2023/01/09 08:11:05;;;;;;;3.40;1.10;;;8.20;99.90;;;;;;5070968;28;20407;-51
2023/01/09 08:13:31;;;;;;;2.70;1.10;;;8.20;99.90;;;;;;5070216;28;20029;-50
2023/01/09 08:15:56;;;;;;;7.45;1.55;;;8.20;99.90;;;;;;5052954;28;20016;-53
2023/01/09 08:18:22;;;;;;;10.65;3.13;;;8.20;99.90;;;;;;5052833;28;20123;-51
2023/01/09 08:20:48;;;;;;;4.32;1.13;;;8.20;99.90;;;;;;5070939;28;20063;-55
2023/01/09 08:23:13;;;;;;;5.00;1.30;;;8.20;99.90;;;;;;5070249;28;20048;-51
2023/01/09 08:25:39;;;;;;;2.90;1.38;;;8.20;99.90;;;;;;5052721;28;20469;-64
2023/01/09 08:28:04;;;;;;;2.22;1.13;;;8.20;99.90;;;;;;5063472;28;20488;-56
2023/01/09 08:30:30;;;;;;;4.20;1.13;;;8.10;99.90;;;;;;5070239;28;20033;-56
2023/01/09 08:32:56;;;;;;;2.83;1.00;;;8.20;99.90;;;;;;5052156;28;20110;-54
2023/01/09 08:35:21;;;;;;;9.25;1.00;;;8.20;99.90;;;;;;5069732;28;20484;-50
2023/01/09 08:37:47;;;;;;;4.70;0.88;;;8.20;99.90;;;;;;5047623;28;20021;-52
2023/01/09 08:40:15;;;;;;;4.32;0.98;;;8.20;99.90;;;;;;5054243;28;20032;-52
2023/01/09 08:48:17;;;;;;;4.40;1.00;;;8.20;99.90;;;;;;5062323;28;20043;-54
2023/01/09 08:50:43;;;;;;;2.17;0.75;;;8.20;99.90;;;;;;5063995;28;20348;-55
2023/01/09 08:53:09;;;;;;;1.20;0.70;;;8.20;99.90;;;;;;5072699;28;20373;-54
2023/01/09 08:55:35;;;;;;;2.60;0.73;;;8.20;99.90;;;;;;5054517;28;20116;-51
2023/01/09 08:58:00;;;;;;;2.20;0.98;;;8.20;99.90;;;;;;5058908;28;20181;-55
2023/01/09 09:00:26;;;;;;;4.78;0.80;;;8.20;99.90;;;;;;5054081;28;20112;-50
2023/01/09 09:02:56;;;;;;;1.23;0.60;;;8.20;99.90;;;;;;5059389;28;20031;-52
2023/01/09 09:05:23;;;;;;;2.67;0.70;;;8.20;99.90;;;;;;5046042;28;20025;-54
2023/01/09 09:07:52;;;;;;;1.73;0.52;;;8.10;99.90;;;;;;5074319;28;20024;-52
2023/01/09 09:10:18;;;;;;;1.55;0.90;;;8.10;99.90;;;;;;5049078;28;20028;-53
2023/01/09 09:12:46;;;;;;;2.25;0.80;;;8.10;99.90;;;;;;5053124;28;20025;-54
2023/01/09 09:15:12;;;;;;;2.72;0.85;;;8.10;99.90;;;;;;5053638;28;20086;-56
2023/01/09 09:17:41;;;;;;;3.20;0.80;;;8.10;99.90;;;;;;5053664;28;20524;-50
2023/01/09 09:20:08;;;;;;;2.25;0.80;;;8.10;99.90;;;;;;5036654;28;20112;-55
2023/01/09 09:22:34;;;;;;;3.33;0.88;;;8.10;99.90;;;;;;5053360;28;20029;-48
2023/01/09 09:25:00;;;;;;;0.77;0.68;;;8.10;99.90;;;;;;5060665;28;20082;-53
2023/01/09 09:27:25;;;;;;;5.15;1.48;;;8.00;99.90;;;;;;5072966;28;20017;-53
2023/01/09 09:29:51;;;;;;;4.43;0.70;;;8.00;99.90;;;;;;5073634;28;20024;-57
2023/01/09 09:32:16;;;;;;;0.52;0.50;;;8.00;99.90;;;;;;5072567;28;20037;-51
2023/01/09 09:34:42;;;;;;;3.10;0.70;;;8.00;99.90;;;;;;5073812;28;20051;-51
2023/01/09 09:37:08;;;;;;;3.10;0.70;;;8.00;99.90;;;;;;5073263;28;20028;-53
2023/01/09 09:39:33;;;;;;;3.70;1.35;;;8.00;99.90;;;;;;5073402;28;20028;-51
2023/01/09 09:45:23;;;;;;;0.82;0.70;;;8.00;99.90;;;;;;5073474;28;20062;-53
2023/01/09 09:48:04;;;;;;;2.90;1.48;;;8.00;99.90;;;;;;5072731;28;20048;-51
2023/01/09 09:50:42;;;;;;;4.85;1.02;;;8.00;99.90;;;;;;5073373;28;20060;-51
2023/01/09 09:53:30;;;;;;;2.22;0.88;;;8.00;99.90;;;;;;5072623;28;20029;-54
2023/01/09 09:55:56;;;;;;;3.55;1.13;;;8.00;99.90;;;;;;5072602;28;20032;-55
2023/01/09 09:58:33;;;;;;;3.88;1.10;;;8.10;99.90;;;;;;5072638;28;20527;-54
2023/01/09 10:01:00;;;;;;;4.03;1.13;;;8.10;99.90;;;;;;5073396;28;20492;-55
2023/01/09 10:03:35;;;;;;;2.50;0.90;;;8.10;99.90;;;;;;5053894;28;20546;-48
2023/01/09 10:06:15;;;;;;;5.88;1.05;;;8.20;99.90;;;;;;5071322;28;20025;-51
2023/01/09 10:09:13;;;;;;;5.45;0.98;;;8.20;99.90;;;;;;5072473;28;20052;-55
2023/01/09 10:11:58;;;;;;;4.03;0.93;;;8.20;99.90;;;;;;5073146;28;20035;-51
2023/01/09 10:14:24;;;;;;;2.40;0.90;;;8.20;99.90;;;;;;5071705;28;20107;-53
2023/01/09 10:17:02;;;;;;;2.25;0.70;;;8.20;99.90;;;;;;5064512;28;20131;-56
2023/01/09 10:19:46;;;;;;;2.17;1.48;;;8.20;99.90;;;;;;5067663;28;20373;-59
2023/01/09 10:22:41;;;;;;;1.35;0.57;;;8.20;99.90;;;;;;5070406;28;20378;-57
2023/01/09 10:25:35;;;;;;;1.88;0.55;;;8.20;99.90;;;;;;5071784;28;20040;-63
2023/01/09 10:28:29;;;;;;;1.00;0.70;;;8.20;99.90;;;;;;5051566;28;20048;-61
2023/01/09 10:31:03;;;;;;;1.63;0.60;;;8.20;99.90;;;;;;5051188;28;20453;-60
2023/01/09 10:33:31;;;;;;;1.48;0.73;;;8.20;99.90;;;;;;5032516;28;20028;-60
2023/01/09 10:36:00;;;;;;;2.80;0.70;;;8.20;99.90;;;;;;5068471;28;20025;-57
2023/01/09 10:38:31;;;;;;;1.00;0.63;;;8.30;99.90;;;;;;5071569;28;20032;-60
2023/01/09 10:41:06;;;;;;;3.88;0.88;;;8.20;99.90;;;;;;5054681;28;20025;-62
2023/01/09 10:43:46;;;;;;;5.05;0.90;;;8.30;99.90;;;;;;5071706;28;20028;-57
2023/01/09 10:46:19;;;;;;;1.48;0.70;;;8.20;99.90;;;;;;5052059;28;20511;-52
2023/01/09 10:48:51;;;;;;;0.70;0.60;;;8.20;99.90;;;;;;5071327;28;20316;-50
2023/01/09 10:51:47;;;;;;;3.03;0.70;;;8.20;99.90;;;;;;5071103;28;20020;-54
2023/01/09 10:54:17;;;;;;;2.10;1.10;;;8.20;99.90;;;;;;5055068;28;20490;-55
2023/01/09 10:56:52;;;;;;;2.10;0.73;;;8.20;99.90;;;;;;5070950;28;20058;-53
2023/01/09 10:59:18;;;;;;;2.40;0.90;;;8.20;99.90;;;;;;5070260;28;20058;-51
2023/01/09 11:01:43;;;;;;;2.88;1.05;;;8.20;99.90;;;;;;5070627;28;20040;-52
2023/01/09 11:04:27;;;;;;;8.68;1.23;;;8.30;99.90;;;;;;5070335;28;20021;-56
2023/01/09 11:07:01;;;;;;;2.97;0.80;;;8.30;99.90;;;;;;5070176;28;20028;-55
2023/01/09 11:09:27;;;;;;;2.03;0.95;;;8.40;99.90;;;;;;5089889;28;20083;-52
2023/01/09 11:11:52;;;;;;;5.57;1.08;;;8.40;99.90;;;;;;5077265;28;20059;-55
2023/01/09 11:14:30;;;;;;;4.78;0.98;;;8.40;99.90;;;;;;5070300;28;20020;-60
2023/01/09 11:17:04;;;;;;;1.60;0.75;;;8.40;99.90;;;;;;5049522;28;20041;-59
2023/01/09 11:19:32;;;;;;;5.13;1.33;;;8.50;99.90;;;;;;5044455;28;20469;-55
2023/01/09 11:22:15;;;;;;;2.17;0.63;;;8.50;99.90;;;;;;5052122;28;20029;-57
2023/01/09 11:24:41;;;;;;;0.93;0.90;;;8.60;99.90;;;;;;5070061;28;20025;-57
2023/01/09 11:27:12;;;;;;;1.63;0.82;;;8.60;99.90;;;;;;5052095;28;20025;-50
2023/01/09 11:29:39;;;;;;;0.77;0.75;;;8.60;99.90;;;;;;5070134;28;20036;-61
2023/01/09 11:32:05;;;;;;;1.80;1.48;;;8.60;99.90;;;;;;5068553;28;20439;-60
2023/01/09 11:34:35;;;;;;;2.03;0.57;;;8.60;99.90;;;;;;5070131;28;20040;-57
2023/01/09 11:37:14;;;;;;;0.82;0.52;;;8.60;99.90;;;;;;5052086;28;20032;-58
2023/01/09 11:39:46;;;;;;;3.53;1.33;;;8.60;99.90;;;;;;5069843;28;20033;-56
2023/01/09 11:42:50;;;;;;;0.93;0.60;;;8.60;99.90;;;;;;5068889;28;20025;-47
2023/01/09 11:45:16;;;;;;;0.73;0.57;;;8.70;99.90;;;;;;5070863;28;20025;-51
2023/01/09 11:47:42;;;;;;;1.20;0.60;;;8.60;99.90;;;;;;5070908;28;20050;-49
2023/01/09 11:50:26;;;;;;;5.47;1.38;;;8.60;99.90;;;;;;5071360;28;20036;-46
2023/01/09 11:53:13;;;;;;;1.55;0.63;;;8.70;99.90;;;;;;5070107;28;20032;-49
2023/01/09 11:55:39;;;;;;;1.02;0.70;;;8.60;99.90;;;;;;5070295;28;20021;-50
2023/01/09 11:58:04;;;;;;;2.15;1.10;;;8.60;99.90;;;;;;5070904;28;20028;-50
2023/01/09 12:00:40;;;;;;;1.70;0.60;;;8.60;99.90;;;;;;5071042;28;20029;-50
2023/01/09 12:03:11;;;;;;;1.90;0.80;;;8.70;99.90;;;;;;5070189;28;20024;-52
2023/01/09 12:05:53;;;;;;;4.43;1.92;;;8.70;99.90;;;;;;5071327;28;20112;-47
2023/01/09 12:08:25;;;;;;;1.42;0.70;;;8.70;99.90;;;;;;5071413;28;20024;-47
2023/01/09 12:11:02;;;;;;;3.78;1.17;;;8.80;99.90;;;;;;5071979;28;20076;-50
2023/01/09 12:13:47;;;;;;;5.22;1.13;;;8.80;99.90;;;;;;5073990;28;20036;-47
2023/01/09 12:16:34;;;;;;;2.57;1.17;;;8.80;99.90;;;;;;5074228;28;20048;-49
2023/01/09 12:19:07;;;;;;;3.90;1.02;;;8.80;99.90;;;;;;5054833;28;20277;-47
2023/01/09 12:21:52;;;;;;;2.40;0.90;;;8.80;99.90;;;;;;5075013;28;20090;-46
2023/01/09 12:24:36;;;;;;;3.83;0.63;;;8.80;99.90;;;;;;5055295;28;20055;-50
2023/01/09 12:27:43;;;;;;;3.78;1.08;;;8.80;99.90;;;;;;5074368;28;20021;-48
2023/01/09 12:30:33;;;;;;;3.40;1.20;;;8.90;99.90;;;;;;5074682;28;20166;-48
2023/01/09 12:33:18;;;;;;;1.67;0.70;;;8.90;99.90;;;;;;5055161;28;20059;-50
2023/01/09 12:35:50;;;;;;;2.65;1.52;;;8.90;99.90;;;;;;5074584;28;20033;-53
2023/01/09 12:38:59;;;;;;;3.00;1.00;;;9.00;99.90;;;;;;5073588;28;20025;-50
2023/01/09 12:41:56;;;;;;;2.28;1.02;;;9.00;99.90;;;;;;5072421;28;20535;-52
2023/01/09 12:45:07;;;;;;;3.38;1.38;;;8.90;99.90;;;;;;5056039;28;20070;-49
2023/01/09 12:47:47;;;;;;;2.45;1.13;;;8.90;99.90;;;;;;4979094;28;20030;-51
2023/01/09 12:50:54;;;;;;;1.48;0.70;;;8.80;99.90;;;;;;5047123;28;20061;-48
2023/01/09 12:53:28;;;;;;;1.90;1.30;;;8.70;99.90;;;;;;5014911;28;20131;-48
2023/01/09 12:56:07;;;;;;;5.22;1.30;;;8.80;99.90;;;;;;5073944;28;20032;-50
2023/01/09 12:58:53;;;;;;;2.22;0.90;;;8.80;99.90;;;;;;5073751;28;20025;-53
2023/01/09 13:01:28;;;;;;;4.97;0.95;;;8.90;99.90;;;;;;5073543;28;20027;-49
2023/01/09 13:04:18;;;;;;;4.25;1.10;;;8.90;99.90;;;;;;5072802;28;20108;-47
2023/01/09 13:06:50;;;;;;;2.90;0.82;;;8.80;99.90;;;;;;5073529;28;20024;-49
2023/01/09 13:09:37;;;;;;;1.27;0.90;;;8.90;99.90;;;;;;5073284;28;20107;-51
2023/01/09 13:12:17;;;;;;;6.80;1.23;;;8.80;99.90;;;;;;5072775;28;20056;-48
2023/01/09 13:14:55;;;;;;;1.50;0.88;;;8.80;99.90;;;;;;5055674;28;20075;-47
2023/01/09 13:17:24;;;;;;;1.52;0.85;;;8.90;99.90;;;;;;5073698;28;20040;-47
2023/01/09 13:19:49;;;;;;;2.60;0.75;;;8.80;99.90;;;;;;5073708;28;20481;-47
2023/01/09 13:22:17;;;;;;;0.68;0.60;;;8.80;99.90;;;;;;5071684;28;20040;-48
2023/01/09 13:24:56;;;;;;;0.70;0.70;;;8.90;99.90;;;;;;5072520;28;20059;-50
2023/01/09 13:27:24;;;;;;;2.03;0.70;;;8.90;99.90;;;;;;5072878;28;20477;-48